Vance Air Force Base
KEND : now visible

Airfield :











YOU CAN JOIN US ON...

 
LOGIN :

Register | Disclaimer

   EN    FR    IT 

 









Legend :    VFR   Marginal VFR   IFR   Intensive IFR   Very Intensive IFR
Visi :
Ceiling :
>= 8 km
>= 3000ft
5 to 8 km
1000 to 3000 ft
1500m to 5 km
500 to 1000 ft
800 to 1500m
200 to 500 ft
< 800m
< 200 ft
Symbols :   Thunderstorms  Fog  Heavy snow  Heavy precipitations  Wind > 20 kt






- Airport Elevation : 1307 ft


KEND - Vance Air Force Base

CURRENT METAR :
  • 281156Z AUTO 22008KT 10SM BKN180 13/08 A2960 RMK AO2 SLP018 60005 70005 T01250084 10192 20125 53009

EXPIRED METARs :
  • 281056Z AUTO 25010KT 10SM CLR 15/10 A2960 RMK AO2 SLP017 T01530101
  • 280956Z AUTO 19012KT 10SM CLR 19/19 A2955 RMK AO2 PK WND 21038/03 LTG DSNT SE RAE14 TSE18 SLP998 P0002 T01870187

TAF AMD TAF KEND
Valid from the 27 at 23:00 until the 29 at 00:00 UTC


272300Z 2723/2824 VRB06KT 8000 BR SCT030 BKN150 QNH2955INS
BECMG 2801/2802 15012KT 9999 SCT020 510012 QNH2963INS
BECMG 2815/2816 24025G35KT 9999 SKC 530014 510803 QNH2960INS
BECMG 2819/2820 24030G40KT 9999 SKC 530014 QNH2960INS
BECMG 2822/2823 27030G40KT 9999 SKC 530024 QNH2966INS TX24/2723Z TN15/2814Z LAST NO AMDS AFT 2723 NEXT 2917



MET'MAP, your aeronautical weather chart ! - Copyright ORBIFLY December 2007 - Disclaimer

ORBIFLY MET'MAP TEAM :

Programming & Development : Alexandra Zaïnal
Concept & original design : Baudouin d'Aumeries
Assistance for programming : Marc-Olivier Méhu
Technical & hardware support : Manuel Goepfert

Contact : metmap@orbifly.com




SOURCES & CREDITS :

   NOAA       Earth
Advisory